Time;durP1;ratioP1;P1;durP2;ratioP2;P2;SDS_P1;SDS_P2;PMS_P1;PMS_P2;Temp;Humidity;BMP_temperature;BMP_pressure;BME280_temperature;BME280_humidity;BME280_pressure;Samples;Min_cycle;Max_cycle;Signal;HPM_P1;HPM_P2
2022/09/09 00:00:47;;;;;;;2.45;1.42;;;;;;;16.12;77.71;100801.22;5037887;27;101000;-31
2022/09/09 00:03:25;;;;;;;4.07;1.40;;;;;;;16.18;77.78;100793.47;5038041;27;96601;-31
2022/09/09 00:06:18;;;;;;;2.53;1.40;;;;;;;16.12;77.97;100797.63;5056707;27;96675;-29
2022/09/09 00:09:11;;;;;;;3.85;1.52;;;;;;;16.07;77.68;100800.75;5055749;27;99287;-31
2022/09/09 00:11:46;;;;;;;3.28;1.35;;;;;;;16.00;78.54;100794.06;5047259;27;99698;-29
2022/09/09 00:14:34;;;;;;;2.35;1.45;;;;;;;15.99;77.98;100789.59;5036889;27;96593;-30
2022/09/09 00:17:08;;;;;;;2.10;1.23;;;;;;;15.91;79.13;100775.72;5056437;27;96541;-29
2022/09/09 00:19:45;;;;;;;5.10;1.92;;;;;;;15.84;79.43;100775.38;5037253;27;101569;-30
2022/09/09 00:22:20;;;;;;;4.82;1.77;;;;;;;15.85;79.50;100776.25;5037418;27;100877;-30
2022/09/09 00:24:54;;;;;;;3.33;1.70;;;;;;;15.85;79.16;100773.50;5037452;27;96624;-31
2022/09/09 00:27:32;;;;;;;4.03;2.00;;;;;;;15.87;78.90;100768.78;5037749;27;96888;-29
2022/09/09 00:30:22;;;;;;;5.55;2.50;;;;;;;15.85;79.24;100768.03;5037401;27;101359;-30
2022/09/09 00:32:50;;;;;;;4.80;2.60;;;;;;;15.89;78.33;100769.53;5037678;27;101319;-30
2022/09/09 00:35:33;;;;;;;4.65;2.08;;;;;;;15.77;79.40;100762.38;5037292;27;96676;-31
2022/09/09 00:38:23;;;;;;;4.20;2.00;;;;;;;15.76;79.97;100766.13;5037488;27;97192;-29
2022/09/09 00:41:13;;;;;;;3.15;2.13;;;;;;;15.70;80.05;100768.34;5036723;27;101204;-29
2022/09/09 00:43:40;;;;;;;3.83;1.77;;;;;;;15.68;79.42;100756.69;5055712;27;97440;-29
2022/09/09 00:46:12;;;;;;;2.65;1.55;;;;;;;15.70;80.21;100759.28;5036740;27;96633;-30
2022/09/09 00:49:15;;;;;;;4.80;1.95;;;;;;;15.69;79.20;100761.13;5055958;27;96443;-29
2022/09/09 00:51:41;;;;;;;3.05;1.50;;;;;;;15.68;80.52;100764.88;5023897;27;98006;-30
2022/09/09 00:54:24;;;;;;;3.80;1.52;;;;;;;15.73;80.23;100764.53;5055200;27;97879;-29
2022/09/09 00:57:23;;;;;;;4.03;1.83;;;;;;;15.69;80.25;100769.31;5037169;27;96652;-31
2022/09/09 00:59:58;;;;;;;2.10;1.23;;;;;;;15.71;79.67;100767.38;5021930;27;96954;-30
2022/09/09 01:02:35;;;;;;;3.30;1.85;;;;;;;15.71;79.57;100764.63;5036929;27;101298;-30
2022/09/09 01:05:29;;;;;;;2.00;1.33;;;;;;;15.65;80.38;100758.78;5036774;27;100859;-30
2022/09/09 01:07:58;;;;;;;2.83;1.55;;;;;;;15.61;80.37;100747.28;5036468;27;96655;-30
2022/09/09 01:11:02;;;;;;;5.05;1.60;;;;;;;15.63;79.81;100753.44;5036934;27;96834;-31
2022/09/09 01:13:34;;;;;;;2.78;1.45;;;;;;;15.54;80.57;100742.44;5035779;27;101201;-29
2022/09/09 01:16:03;;;;;;;2.15;1.30;;;;;;;15.52;80.69;100739.84;5055236;27;97354;-30
2022/09/09 01:18:46;;;;;;;2.67;1.42;;;;;;;15.57;81.06;100737.59;5036954;27;96576;-30
2022/09/09 01:21:53;;;;;;;1.85;1.08;;;;;;;15.58;80.51;100738.47;5036891;27;96950;-31
2022/09/09 01:24:34;;;;;;;2.65;1.05;;;;;;;15.57;80.43;100731.28;4972216;28;97398;-30
2022/09/09 01:27:03;;;;;;;2.05;1.38;;;;;;;15.58;80.29;100733.84;5047141;27;97372;-30
2022/09/09 01:29:29;;;;;;;6.05;1.25;;;;;;;15.63;80.71;100725.28;5036709;27;96721;-29
2022/09/09 01:31:58;;;;;;;4.15;1.27;;;;;;;15.58;80.17;100731.13;5036661;27;96879;-30
2022/09/09 01:34:40;;;;;;;2.80;1.40;;;;;;;15.60;80.33;100728.28;5035973;27;101055;-29
2022/09/09 01:37:10;;;;;;;;;;;;;;;15.62;80.79;100742.69;5036700;27;100756;-29
2022/09/09 01:39:38;;;;;;;1.55;0.77;;;;;;;15.61;79.35;100732.72;5055023;27;96536;-29
2022/09/09 01:42:07;;;;;;;5.75;1.55;;;;;;;15.59;80.00;100723.78;5036443;27;96829;-29
2022/09/09 01:44:35;;;;;;;2.67;1.20;;;;;;;15.53;80.07;100719.72;5036341;27;101175;-29
2022/09/09 01:47:00;;;;;;;2.22;1.30;;;;;;;15.50;80.18;100720.88;5036181;27;100552;-30
2022/09/09 01:49:26;;;;;;;3.35;1.40;;;;;;;15.44;81.02;100724.09;5054924;27;96565;-29
2022/09/09 01:51:54;;;;;;;3.72;1.33;;;;;;;15.42;80.74;100717.03;5055435;27;96775;-31
2022/09/09 01:54:23;;;;;;;3.72;1.50;;;;;;;15.45;81.32;100719.53;5036040;27;101218;-30
2022/09/09 01:57:14;;;;;;;3.95;1.40;;;;;;;15.47;80.73;100725.72;5036097;27;100816;-29
2022/09/09 02:00:13;;;;;;;4.45;1.10;;;;;;;15.44;80.89;100718.63;5057917;27;96647;-30
2022/09/09 02:03:04;;;;;;;3.65;1.27;;;;;;;15.49;81.12;100723.72;5058080;27;96653;-30
2022/09/09 02:05:37;;;;;;;2.42;1.20;;;;;;;15.53;80.02;100725.19;5039697;27;98992;-31
2022/09/09 02:08:14;;;;;;;1.73;1.00;;;;;;;15.51;80.88;100719.00;5039420;27;101145;-29
2022/09/09 02:10:43;;;;;;;2.08;1.05;;;;;;;15.54;79.96;100716.03;5058329;27;97461;-30
2022/09/09 02:13:12;;;;;;;1.83;1.10;;;;;;;15.56;80.63;100711.28;5057704;27;96887;-30
2022/09/09 02:15:58;;;;;;;3.78;1.42;;;;;;;15.56;80.27;100715.88;5039412;27;100921;-29
2022/09/09 02:18:29;;;;;;;5.78;1.67;;;;;;;15.47;80.63;100712.94;5039760;27;100799;-29
2022/09/09 02:20:56;;;;;;;2.67;1.20;;;;;;;15.45;81.23;100704.00;5039743;27;96880;-31
2022/09/09 02:23:21;;;;;;;1.75;1.05;;;;;;;15.47;81.24;100709.34;5057937;27;96776;-30
2022/09/09 02:25:48;;;;;;;2.05;1.33;;;;;;;15.48;80.29;100708.34;5057265;27;97989;-29
2022/09/09 02:28:16;;;;;;;3.50;1.25;;;;;;;15.47;81.15;100695.69;5039098;27;101347;-29
2022/09/09 02:30:44;;;;;;;5.22;1.70;;;;;;;15.49;80.39;100701.88;5039469;27;96671;-30
2022/09/09 02:33:13;;;;;;;3.85;1.55;;;;;;;15.48;80.16;100692.81;5039504;27;96869;-30
2022/09/09 02:35:41;;;;;;;5.07;1.13;;;;;;;15.47;80.87;100684.78;5039137;27;100859;-30
2022/09/09 02:38:12;;;;;;;2.20;1.38;;;;;;;15.43;80.66;100677.84;5057047;27;99605;-30
2022/09/09 02:40:38;;;;;;;5.60;1.73;;;;;;;15.48;80.89;100681.91;5039550;27;96771;-32
2022/09/09 02:43:03;;;;;;;3.22;1.27;;;;;;;15.45;81.26;100678.59;5058107;27;96774;-29
2022/09/09 02:45:42;;;;;;;1.67;1.13;;;;;;;15.46;81.20;100678.44;5057221;27;99844;-30
2022/09/09 02:48:17;;;;;;;2.42;1.45;;;;;;;15.47;80.77;100687.50;5057129;27;99554;-30
2022/09/09 02:50:59;;;;;;;2.53;1.40;;;;;;;15.44;81.11;100679.56;5056989;27;96590;-30
2022/09/09 02:53:54;;;;;;;2.63;1.38;;;;;;;15.46;81.13;100683.03;5057569;27;96625;-30
2022/09/09 02:56:25;;;;;;;4.65;1.23;;;;;;;15.47;80.58;100688.38;5038822;27;100936;-30
2022/09/09 02:58:51;;;;;;;3.13;1.45;;;;;;;15.48;80.29;100683.78;5038797;27;101172;-31
2022/09/09 03:01:17;;;;;;;4.78;1.98;;;;;;;15.45;80.59;100673.13;5057391;27;96659;-30
2022/09/09 03:03:44;;;;;;;1.88;1.15;;;;;;;15.47;80.43;100682.91;5039013;27;97020;-30
2022/09/09 03:06:11;;;;;;;3.78;1.50;;;;;;;15.47;80.39;100676.59;5038794;27;100973;-31
2022/09/09 03:08:37;;;;;;;4.45;1.20;;;;;;;15.47;80.43;100674.72;5057030;27;98985;-29
2022/09/09 03:11:02;;;;;;;1.05;0.73;;;;;;;15.47;79.84;100672.00;5056562;27;96646;-30
2022/09/09 03:13:28;;;;;;;1.30;0.75;;;;;;;15.48;79.64;100678.31;5056807;27;96768;-30
2022/09/09 03:15:53;;;;;;;3.30;1.15;;;;;;;15.46;80.18;100677.56;5037931;27;100843;-29
2022/09/09 03:18:18;;;;;;;2.58;1.02;;;;;;;15.42;79.70;100676.09;5056768;27;99784;-30
2022/09/09 03:20:48;;;;;;;2.58;0.98;;;;;;;15.47;79.89;100679.31;5056656;27;97028;-30
2022/09/09 03:23:14;;;;;;;3.15;1.00;;;;;;;15.45;79.63;100678.59;5038632;27;96838;-30
2022/09/09 03:25:39;;;;;;;4.38;1.50;;;;;;;15.41;79.80;100674.38;5038406;27;101447;-30
2022/09/09 03:28:04;;;;;;;5.28;1.02;;;;;;;15.41;79.99;100677.09;5056483;27;97717;-29
2022/09/09 03:30:30;;;;;;;3.50;1.08;;;;;;;15.38;80.22;100671.91;5057029;27;96493;-29
2022/09/09 03:32:55;;;;;;;3.38;0.77;;;;;;;15.41;80.26;100666.19;5057455;27;96798;-30
2022/09/09 03:35:21;;;;;;;6.88;1.45;;;;;;;15.35;80.01;100663.97;5056269;27;99408;-29
2022/09/09 03:37:46;;;;;;;5.57;0.88;;;;;;;15.35;80.42;100666.69;5056608;27;97842;-29
2022/09/09 03:40:12;;;;;;;2.33;1.30;;;;;;;15.37;80.68;100664.69;5056239;27;96634;-29
2022/09/09 03:42:38;;;;;;;1.23;0.82;;;;;;;15.38;80.20;100674.63;5038342;27;97007;-29
2022/09/09 03:45:09;;;;;;;2.33;1.15;;;;;;;15.33;80.75;100671.44;5056212;27;97529;-29
2022/09/09 03:47:34;;;;;;;4.63;1.23;;;;;;;15.29;80.51;100671.69;5056205;27;98752;-29
2022/09/09 03:50:00;;;;;;;7.00;1.15;;;;;;;15.24;81.00;100668.47;5056827;27;96934;-30
2022/09/09 03:52:26;;;;;;;2.47;0.77;;;;;;;15.24;80.73;100673.06;5038362;27;96886;-31
2022/09/09 03:54:52;;;;;;;2.13;0.95;;;;;;;15.21;81.60;100663.28;5056104;27;98966;-30
2022/09/09 03:57:18;;;;;;;1.42;0.80;;;;;;;15.22;81.28;100667.72;5037762;27;101219;-31
2022/09/09 03:59:43;;;;;;;3.08;1.02;;;;;;;15.20;80.61;100658.81;5056650;27;96494;-30
2022/09/09 04:02:09;;;;;;;1.33;0.65;;;;;;;15.18;81.03;100658.09;5056779;27;96756;-29
2022/09/09 04:04:35;;;;;;;2.15;1.00;;;;;;;15.17;80.83;100655.47;5037102;27;101335;-31
2022/09/09 04:07:00;;;;;;;1.65;0.85;;;;;;;15.16;80.82;100654.63;5055976;27;98765;-29
2022/09/09 04:09:31;;;;;;;2.00;1.20;;;;;;;15.18;80.87;100659.94;5056602;27;96591;-31
2022/09/09 04:11:57;;;;;;;4.13;1.03;;;;;;;15.15;81.54;100644.69;5055415;27;108138;-31
2022/09/09 04:14:22;;;;;;;2.50;0.70;;;;;;;15.16;81.08;100656.47;5055570;27;99800;-29
2022/09/09 04:16:47;;;;;;;1.42;0.73;;;;;;;15.11;81.07;100645.06;5056066;27;100611;-29
2022/09/09 04:19:14;;;;;;;2.28;1.02;;;;;;;15.13;81.50;100654.84;5056172;27;96831;-29
2022/09/09 04:21:40;;;;;;;2.95;0.98;;;;;;;15.13;80.89;100649.41;5036980;27;96950;-29
2022/09/09 04:24:07;;;;;;;2.53;1.17;;;;;;;15.12;81.61;100650.41;5037282;27;100955;-29
2022/09/09 04:26:34;;;;;;;1.38;0.80;;;;;;;15.12;81.32;100638.63;5037388;27;100858;-29
2022/09/09 04:28:59;;;;;;;2.55;0.85;;;;;;;15.08;80.89;100641.59;5037221;27;96634;-29
2022/09/09 04:31:25;;;;;;;2.55;1.02;;;;;;;15.10;81.29;100646.94;5056450;27;96771;-29
2022/09/09 04:33:51;;;;;;;1.60;0.82;;;;;;;15.08;81.21;100633.41;5055845;27;97877;-29
2022/09/09 04:36:18;;;;;;;2.42;0.75;;;;;;;15.09;81.24;100637.03;5055371;27;110610;-29
2022/09/09 04:38:44;;;;;;;2.65;1.02;;;;;;;15.03;81.93;100626.63;5037488;27;96613;-30
2022/09/09 04:41:11;;;;;;;1.20;0.68;;;;;;;15.04;81.34;100626.50;5055886;27;96538;-30
2022/09/09 04:43:37;;;;;;;1.40;0.70;;;;;;;14.99;82.55;100625.13;5037237;27;101300;-30
2022/09/09 04:46:02;;;;;;;4.45;1.00;;;;;;;15.01;82.26;100625.88;5037573;27;100483;-29
2022/09/09 04:48:27;;;;;;;4.07;1.35;;;;;;;15.04;81.93;100633.78;5055486;27;96596;-30
2022/09/09 04:50:57;;;;;;;3.03;0.95;;;;;;;15.02;81.78;100620.31;5055789;27;96898;-30
2022/09/09 04:53:23;;;;;;;3.80;0.90;;;;;;;15.03;82.51;100629.34;5036499;27;100948;-29
2022/09/09 04:55:49;;;;;;;3.42;1.15;;;;;;;15.01;82.58;100631.34;5055349;27;97081;-30
2022/09/09 04:58:14;;;;;;;1.40;0.75;;;;;;;14.99;82.38;100630.59;5055520;27;96496;-29
2022/09/09 05:00:40;;;;;;;2.65;1.13;;;;;;;14.96;82.81;100622.69;5037262;27;96953;-29
2022/09/09 05:03:06;;;;;;;2.90;1.33;;;;;;;14.95;82.48;100626.41;5055426;27;97173;-30
2022/09/09 05:05:35;;;;;;;2.22;1.08;;;;;;;14.93;82.38;100623.81;5036816;27;100862;-30
2022/09/09 05:08:02;;;;;;;3.60;1.33;;;;;;;14.95;82.28;100623.69;5036916;27;96572;-29
2022/09/09 05:10:28;;;;;;;2.30;0.98;;;;;;;14.92;83.51;100621.19;5037349;27;96835;-30
2022/09/09 05:12:54;;;;;;;2.53;1.30;;;;;;;14.91;83.07;100616.75;5054882;27;97464;-30
2022/09/09 05:15:20;;;;;;;2.83;1.45;;;;;;;14.93;82.93;100623.81;5036350;27;100619;-29
2022/09/09 05:17:45;;;;;;;1.83;1.17;;;;;;;14.96;82.44;100617.22;5054950;27;96533;-30
2022/09/09 05:20:11;;;;;;;2.83;1.25;;;;;;;14.94;82.67;100611.03;5054991;27;96956;-29
2022/09/09 05:22:37;;;;;;;7.93;1.30;;;;;;;14.94;82.75;100617.34;5054502;27;99806;-29
2022/09/09 05:25:03;;;;;;;4.63;1.55;;;;;;;14.93;83.22;100609.31;5055048;27;97933;-30
2022/09/09 05:27:31;;;;;;;2.78;1.33;;;;;;;14.90;83.37;100612.28;5036946;27;96641;-29
2022/09/09 05:29:57;;;;;;;1.50;0.98;;;;;;;14.96;83.15;100612.63;5055130;27;96764;-30
2022/09/09 05:32:24;;;;;;;2.97;1.23;;;;;;;14.97;83.00;100608.03;5035979;27;99033;-29
2022/09/09 05:35:07;;;;;;;1.67;1.02;;;;;;;15.01;83.04;100609.50;5054935;27;99304;-29
2022/09/09 05:37:32;;;;;;;2.55;0.90;;;;;;;15.02;82.97;100620.31;5055279;27;96549;-30
2022/09/09 05:39:58;;;;;;;5.80;1.85;;;;;;;15.06;82.85;100618.16;5054780;27;103224;-30
2022/09/09 05:42:23;;;;;;;1.92;1.17;;;;;;;15.07;83.27;100625.38;5053695;27;113227;-29
2022/09/09 05:44:50;;;;;;;2.50;1.58;;;;;;;15.07;83.16;100623.50;5054591;27;99352;-29
2022/09/09 05:47:16;;;;;;;6.20;1.20;;;;;;;15.10;83.26;100625.13;5055032;27;96441;-29
2022/09/09 05:49:42;;;;;;;2.15;0.80;;;;;;;15.15;82.91;100625.59;5036431;27;96952;-29
2022/09/09 05:52:09;;;;;;;4.03;1.20;;;;;;;15.22;82.55;100623.22;5054710;27;98003;-30
2022/09/09 05:54:35;;;;;;;6.68;1.13;;;;;;;15.28;82.01;100615.38;5054736;27;97251;-29
2022/09/09 05:57:00;;;;;;;3.70;1.52;;;;;;;15.34;81.77;100618.56;5055017;27;96509;-30
2022/09/09 05:59:25;;;;;;;2.03;0.95;;;;;;;15.36;82.43;100617.44;5054929;27;97984;-31
2022/09/09 06:01:51;;;;;;;7.25;1.27;;;;;;;15.37;82.00;100621.91;5054618;27;97885;-30
2022/09/09 06:04:22;;;;;;;6.00;1.40;;;;;;;15.42;81.74;100624.22;5054245;27;97977;-30
2022/09/09 06:06:48;;;;;;;2.78;1.25;;;;;;;15.43;81.56;100626.84;5035965;27;96678;-29
2022/09/09 06:09:15;;;;;;;5.03;1.23;;;;;;;15.43;82.05;100620.53;5036235;27;96861;-30
2022/09/09 06:11:42;;;;;;;6.90;1.08;;;;;;;15.49;82.12;100630.91;5035687;27;101090;-31
2022/09/09 06:14:08;;;;;;;1.45;0.88;;;;;;;15.45;81.66;100627.56;5025620;28;101103;-29
2022/09/09 06:16:34;;;;;;;2.42;0.88;;;;;;;15.43;82.38;100629.56;5012834;28;96803;-29
2022/09/09 06:19:01;;;;;;;6.35;2.03;;;;;;;15.50;82.21;100627.19;5013890;28;96851;-29
2022/09/09 06:21:32;;;;;;;4.22;1.08;;;;;;;15.54;82.16;100625.03;5012098;28;99547;-29
2022/09/09 06:23:58;;;;;;;6.25;1.42;;;;;;;15.60;81.83;100630.84;5014058;28;99208;-29
2022/09/09 06:26:25;;;;;;;7.00;1.30;;;;;;;15.65;81.70;100622.25;5011184;28;96697;-31
2022/09/09 06:28:52;;;;;;;2.45;0.93;;;;;;;15.67;81.92;100628.47;5012343;28;96796;-30
2022/09/09 06:31:23;;;;;;;1.83;1.05;;;;;;;15.70;81.72;100629.06;5011734;28;101630;-30
2022/09/09 06:34:08;;;;;;;3.45;1.17;;;;;;;15.68;81.65;100625.59;5012391;28;101208;-29
2022/09/09 06:36:36;;;;;;;4.32;1.15;;;;;;;15.73;81.31;100627.97;5012023;28;96709;-29
2022/09/09 06:39:02;;;;;;;2.70;1.23;;;;;;;15.74;81.30;100631.56;5013927;28;96756;-30
2022/09/09 06:41:30;;;;;;;2.08;1.27;;;;;;;15.76;81.70;100626.84;5012176;28;101122;-31
2022/09/09 06:43:55;;;;;;;2.17;1.38;;;;;;;15.78;81.39;100627.53;5010331;28;101357;-28
2022/09/09 06:46:23;;;;;;;4.18;1.20;;;;;;;15.79;80.85;100627.41;5014892;28;96639;-29
2022/09/09 06:48:49;;;;;;;3.47;1.63;;;;;;;15.81;80.89;100630.88;5015065;28;96940;-30
2022/09/09 06:51:21;;;;;;;6.60;1.50;;;;;;;15.82;81.31;100640.81;5014292;28;101584;-31
2022/09/09 06:53:47;;;;;;;5.10;1.42;;;;;;;15.85;81.01;100631.47;5015641;28;99360;-30
2022/09/09 06:56:34;;;;;;;3.35;1.65;;;;;;;15.91;81.70;100641.88;5013975;28;97174;-31
2022/09/09 06:59:03;;;;;;;2.65;1.58;;;;;;;15.89;81.54;100635.66;5014302;28;97104;-33
2022/09/09 07:01:31;;;;;;;6.13;1.85;;;;;;;15.95;80.88;100637.03;5013133;28;100781;-29
2022/09/09 07:03:58;;;;;;;5.35;1.55;;;;;;;15.95;80.61;100629.69;5014018;28;100837;-29
2022/09/09 07:06:34;;;;;;;2.83;1.55;;;;;;;15.97;80.64;100638.63;5014843;28;97093;-30
2022/09/09 07:09:03;;;;;;;3.60;1.73;;;;;;;15.97;80.32;100624.97;5015842;28;96720;-31
2022/09/09 07:11:32;;;;;;;6.57;1.65;;;;;;;15.97;80.96;100629.53;5014581;28;100836;-30
2022/09/09 07:13:59;;;;;;;2.72;1.33;;;;;;;16.00;81.20;100623.81;5014456;27;103948;-31
2022/09/09 07:16:25;;;;;;;6.22;1.45;;;;;;;15.99;80.79;100616.59;5015461;28;96606;-29
2022/09/09 07:18:52;;;;;;;2.38;1.35;;;;;;;16.00;80.86;100624.69;5015426;28;96849;-30
2022/09/09 07:21:18;;;;;;;6.97;2.15;;;;;;;16.02;80.43;100628.16;5013758;28;98982;-30
2022/09/09 07:23:49;;;;;;;5.43;2.15;;;;;;;16.03;80.65;100624.41;5016056;28;99314;-29
2022/09/09 07:26:19;;;;;;;6.40;1.88;;;;;;;16.03;80.18;100624.41;5014691;28;105700;-29
2022/09/09 07:28:45;;;;;;;5.03;2.15;;;;;;;16.03;80.28;100629.00;5016302;28;96781;-30
2022/09/09 07:31:18;;;;;;;3.03;1.80;;;;;;;16.05;80.27;100629.75;5015546;28;98957;-29
2022/09/09 07:33:44;;;;;;;3.75;1.77;;;;;;;16.05;80.39;100622.41;5015726;28;99170;-31
2022/09/09 07:36:17;;;;;;;2.75;1.70;;;;;;;16.06;80.20;100628.72;5014454;28;96742;-31
2022/09/09 07:38:49;;;;;;;9.10;2.63;;;;;;;16.04;80.29;100633.47;5016303;28;96697;-29
2022/09/09 07:41:40;;;;;;;2.30;1.40;;;;;;;16.02;80.17;100630.03;5016012;28;99967;-29
2022/09/09 07:44:23;;;;;;;3.42;1.70;;;;;;;16.00;80.53;100637.47;5014546;28;97491;-29
2022/09/09 07:46:48;;;;;;;4.25;1.35;;;;;;;15.98;80.55;100626.69;5016101;28;96571;-30
2022/09/09 07:49:15;;;;;;;3.72;1.48;;;;;;;16.00;80.74;100629.28;5016406;28;96749;-29
2022/09/09 07:51:44;;;;;;;4.55;1.85;;;;;;;16.04;80.42;100642.53;5014434;28;100983;-29
2022/09/09 07:54:11;;;;;;;8.60;1.95;;;;;;;16.06;80.51;100635.03;5014564;28;100839;-30
2022/09/09 07:56:38;;;;;;;3.42;1.55;;;;;;;16.08;80.43;100633.06;5014508;28;96478;-29
2022/09/09 07:59:06;;;;;;;3.63;1.70;;;;;;;16.08;80.32;100624.84;5016028;28;96815;-30
2022/09/09 08:01:38;;;;;;;9.18;2.03;;;;;;;16.13;80.53;100627.19;5015583;28;99402;-29
2022/09/09 08:04:12;;;;;;;3.63;1.80;;;;;;;16.11;80.23;100631.91;5016321;28;97799;-31
2022/09/09 08:06:42;;;;;;;10.27;2.20;;;;;;;16.12;80.02;100631.78;5016085;28;96572;-29
2022/09/09 08:09:09;;;;;;;7.35;2.47;;;;;;;16.12;80.25;100628.19;5014478;28;96885;-30
2022/09/09 08:11:35;;;;;;;4.15;2.10;;;;;;;16.13;80.13;100633.50;5013450;28;100850;-30
2022/09/09 08:14:01;;;;;;;3.65;1.70;;;;;;;16.17;80.29;100628.66;5013764;28;100780;-29
2022/09/09 08:16:30;;;;;;;3.40;1.75;;;;;;;16.19;80.10;100637.59;5016334;28;96627;-29
2022/09/09 08:18:56;;;;;;;7.05;2.55;;;;;;;16.22;80.24;100639.19;5014367;28;96920;-29
2022/09/09 08:21:27;;;;;;;2.58;1.70;;;;;;;16.21;79.99;100635.59;5013695;28;98456;-30
2022/09/09 08:23:54;;;;;;;3.83;2.20;;;;;;;16.22;79.95;100639.19;5015443;28;97988;-31
2022/09/09 08:26:23;;;;;;;7.65;2.88;;;;;;;16.25;79.95;100641.63;5015517;28;96516;-31
2022/09/09 08:28:51;;;;;;;5.25;2.03;;;;;;;16.23;80.26;100639.06;5015911;28;96838;-30
2022/09/09 08:31:25;;;;;;;4.20;1.88;;;;;;;16.24;80.24;100637.19;5013886;28;101244;-29
2022/09/09 08:33:50;;;;;;;4.05;2.03;;;;;;;16.23;80.12;100641.78;5013962;28;100988;-31
2022/09/09 08:36:19;;;;;;;5.68;1.83;;;;;;;16.26;80.09;100640.66;5015049;28;96614;-29
2022/09/09 08:38:48;;;;;;;4.22;1.98;;;;;;;16.31;79.61;100638.38;5013874;28;96659;-30
2022/09/09 08:41:42;;;;;;;6.35;2.60;;;;;;;16.32;79.69;100651.88;5013751;28;100929;-30
2022/09/09 08:44:25;;;;;;;7.32;2.17;;;;;;;16.31;79.67;100646.56;5015241;28;97848;-29
2022/09/09 08:46:55;;;;;;;2.10;1.67;;;;;;;16.27;79.71;100650.56;5015322;28;96652;-29
2022/09/09 08:49:55;;;;;;;4.80;1.88;;;;;;;16.28;79.79;100638.63;5013813;28;96946;-29
2022/09/09 08:52:31;;;;;;;4.68;1.70;;;;;;;16.29;79.47;100643.94;5014941;28;99554;-29
2022/09/09 08:55:02;;;;;;;6.22;2.10;;;;;;;16.28;79.91;100642.25;5013777;28;102600;-30
2022/09/09 08:57:31;;;;;;;2.65;1.83;;;;;;;16.33;80.30;100653.63;5013868;28;96722;-29
2022/09/09 08:59:58;;;;;;;3.70;1.95;;;;;;;16.34;79.78;100651.75;5013638;28;96936;-29
2022/09/09 09:02:49;;;;;;;5.03;2.50;;;;;;;16.32;79.76;100651.00;5012841;28;100845;-29
2022/09/09 09:05:27;;;;;;;8.15;2.05;;;;;;;16.35;79.76;100653.47;5013328;28;101270;-30
2022/09/09 09:08:09;;;;;;;6.28;2.30;;;;;;;16.39;79.25;100659.53;5012920;28;96578;-29
2022/09/09 09:10:54;;;;;;;6.47;2.35;;;;;;;16.40;79.38;100650.31;5014894;28;96740;-30
2022/09/09 09:13:41;;;;;;;3.95;1.70;;;;;;;16.38;80.05;100658.69;5014447;28;98583;-29
2022/09/09 09:16:35;;;;;;;7.68;1.98;;;;;;;16.37;80.19;100665.13;5014777;28;97873;-29
2022/09/09 09:19:01;;;;;;;6.18;2.10;;;;;;;16.33;79.80;100658.22;5013429;28;96543;-30
2022/09/09 09:21:48;;;;;;;7.45;2.55;;;;;;;16.35;79.99;100657.09;5013712;28;96977;-29
2022/09/09 09:24:54;;;;;;;3.78;1.95;;;;;;;16.38;80.30;100666.03;5013085;28;101583;-30
2022/09/09 09:27:36;;;;;;;5.07;1.77;;;;;;;16.34;80.94;100665.41;4995224;28;101518;-31
2022/09/09 09:30:06;;;;;;;;;;;;;;;16.37;80.91;100664.28;4995776;28;96981;-29
2022/09/09 09:32:34;;;;;;;2.75;1.65;;;;;;;16.37;80.76;100658.81;5013220;28;97001;-31
2022/09/09 09:35:04;;;;;;;3.20;1.50;;;;;;;16.38;80.92;100655.94;5012971;28;101076;-30
2022/09/09 09:37:35;;;;;;;6.95;1.75;;;;;;;16.42;80.65;100648.31;5012972;28;100828;-31
2022/09/09 09:40:18;;;;;;;9.52;2.35;;;;;;;16.48;80.67;100647.78;5013273;28;96666;-29
2022/09/09 09:43:07;;;;;;;8.88;2.40;;;;;;;16.61;80.42;100648.38;5013244;28;96916;-29
2022/09/09 09:45:34;;;;;;;6.43;1.80;;;;;;;16.79;78.94;100640.44;5014202;28;99822;-29
2022/09/09 09:48:09;;;;;;;7.80;2.03;;;;;;;17.03;79.36;100639.19;5014551;28;98915;-29
2022/09/09 09:50:35;;;;;;;6.97;2.38;;;;;;;17.38;78.08;100639.50;5014575;28;96630;-30
2022/09/09 09:53:04;;;;;;;3.60;1.65;;;;;;;17.48;77.69;100627.69;5014361;28;96804;-29
2022/09/09 09:55:34;;;;;;;2.35;1.55;;;;;;;17.51;77.13;100638.34;5012197;28;101270;-30
2022/09/09 09:58:15;;;;;;;5.53;1.88;;;;;;;17.51;76.53;100632.88;5014288;28;98338;-30
2022/09/09 10:00:51;;;;;;;4.53;1.98;;;;;;;17.47;76.80;100629.59;5013127;28;96715;-29
2022/09/09 10:03:26;;;;;;;7.85;2.45;;;;;;;17.46;77.15;100629.72;5013077;28;96808;-30
2022/09/09 10:05:52;;;;;;;13.52;2.47;;;;;;;17.47;77.07;100628.69;5012452;28;100900;-29
2022/09/09 10:08:18;;;;;;;3.67;2.00;;;;;;;17.49;77.37;100637.63;5012540;28;100793;-30
2022/09/09 10:10:50;;;;;;;6.60;1.88;;;;;;;17.39;77.83;100645.84;5014052;28;96618;-29
2022/09/09 10:13:25;;;;;;;6.88;1.92;;;;;;;17.26;78.72;100640.66;5012934;28;96900;-29
2022/09/09 10:16:13;;;;;;;8.60;2.70;;;;;;;17.13;79.70;100637.31;5035996;27;98924;-30
2022/09/09 10:18:59;;;;;;;4.50;1.77;;;;;;;17.05;80.39;100645.41;5036234;27;101037;-32
2022/09/09 10:21:55;;;;;;;6.28;2.45;;;;;;;17.04;80.32;100646.38;5057626;27;96674;-29
2022/09/09 10:24:49;;;;;;;5.53;2.55;;;;;;;17.04;80.70;100646.38;5039649;27;96890;-29
2022/09/09 10:27:37;;;;;;;6.18;2.58;;;;;;;16.95;81.42;100646.25;5039343;27;100850;-30
2022/09/09 10:30:18;;;;;;;7.88;2.47;;;;;;;16.90;81.34;100651.28;5057547;27;99133;-31
2022/09/09 10:33:18;;;;;;;8.43;2.55;;;;;;;16.88;81.52;100653.28;5039692;27;96600;-30
2022/09/09 10:36:33;;;;;;;7.57;1.88;;;;;;;16.90;81.04;100647.66;5040823;27;96932;-29
2022/09/09 10:39:05;;;;;;;9.05;2.30;;;;;;;16.87;81.50;100643.31;4974669;28;99378;-30
2022/09/09 10:41:36;;;;;;;8.65;3.03;;;;;;;16.90;81.32;100645.81;5025599;27;101397;-30
2022/09/09 10:44:14;;;;;;;9.00;3.50;;;;;;;16.86;81.37;100644.34;5057830;27;96535;-29
2022/09/09 10:47:10;;;;;;;8.65;3.35;;;;;;;16.76;81.96;100649.75;5039450;27;96779;-29
2022/09/09 10:49:44;;;;;;;13.13;2.20;;;;;;;16.68;82.69;100651.44;5038515;27;98970;-30
2022/09/09 10:52:39;;;;;;;7.55;2.85;;;;;;;16.70;82.44;100643.97;5057131;27;99275;-29
2022/09/09 10:55:18;;;;;;;7.53;2.55;;;;;;;16.74;82.82;100645.44;5057692;27;96418;-29
2022/09/09 10:57:49;;;;;;;7.38;2.95;;;;;;;16.68;83.06;100645.97;5039281;27;96907;-29
2022/09/09 11:00:24;;;;;;;8.63;2.75;;;;;;;16.71;83.26;100637.50;5057556;27;97382;-29
2022/09/09 11:02:55;;;;;;;8.60;2.95;;;;;;;16.85;82.93;100639.00;5038678;27;100339;-30
2022/09/09 11:05:30;;;;;;;5.53;2.13;;;;;;;17.15;83.02;100638.06;5039097;27;96603;-29
2022/09/09 11:08:00;;;;;;;6.93;2.28;;;;;;;17.25;82.73;100632.59;5039768;27;96932;-32
2022/09/09 11:10:40;;;;;;;4.68;2.00;;;;;;;17.25;81.74;100632.59;5038592;27;100911;-29
2022/09/09 11:13:34;;;;;;;7.65;2.83;;;;;;;17.46;81.36;100640.66;5038535;27;100749;-30
2022/09/09 11:16:23;;;;;;;4.88;2.22;;;;;;;17.65;81.37;100639.78;4988311;28;96836;-29
2022/09/09 11:18:49;;;;;;;7.07;2.00;;;;;;;17.75;79.88;100640.66;5008537;28;96797;-29
2022/09/09 11:21:23;;;;;;;3.67;2.05;;;;;;;17.69;79.68;100639.38;5016147;28;99295;-29
2022/09/09 11:23:56;;;;;;;4.50;2.00;;;;;;;17.81;79.16;100638.22;5015065;28;100875;-30
2022/09/09 11:26:31;;;;;;;11.50;2.40;;;;;;;17.82;78.58;100639.94;5015354;28;96636;-29
2022/09/09 11:29:47;;;;;;;5.40;2.20;;;;;;;17.72;78.54;100641.81;5015184;28;96821;-30
2022/09/09 11:32:27;;;;;;;8.57;2.00;;;;;;;17.54;79.10;100654.50;4953865;28;97583;-29
2022/09/09 11:35:32;;;;;;;6.78;2.22;;;;;;;17.46;79.80;100651.63;5005542;28;101151;-30
2022/09/09 11:38:25;;;;;;;8.20;2.28;;;;;;;17.34;80.25;100649.00;5016403;28;96498;-31
2022/09/09 11:41:02;;;;;;;5.32;3.10;;;;;;;17.29;80.35;100647.72;5016543;28;96714;-29
2022/09/09 11:44:18;;;;;;;5.10;2.70;;;;;;;17.26;81.01;100646.16;5014062;28;98961;-31
2022/09/09 11:46:46;;;;;;;4.88;2.20;;;;;;;17.15;80.68;100641.66;5015813;28;99336;-30
2022/09/09 11:49:40;;;;;;;10.20;2.45;;;;;;;17.15;81.75;100649.00;5014649;28;97158;-29
2022/09/09 11:52:21;;;;;;;9.00;2.35;;;;;;;17.10;80.86;100640.34;5014854;28;96710;-31